Time;durP1;ratioP1;P1;durP2;ratioP2;P2;SDS_P1;SDS_P2;PMS_P1;PMS_P2;Temp;Humidity;BMP_temperature;BMP_pressure;BME280_temperature;BME280_humidity;BME280_pressure;Samples;Min_cycle;Max_cycle;Signal;HPM_P1;HPM_P2
2022/09/22 00:00:53;;;;;;;4.50;4.10;;;3.00;99.90;;;;;;5072932;28;20025;-52
2022/09/22 00:03:19;;;;;;;6.10;4.38;;;2.90;99.90;;;;;;5074259;28;20025;-51
2022/09/22 00:05:44;;;;;;;5.25;4.72;;;2.90;99.90;;;;;;5055589;28;20032;-52
2022/09/22 00:08:10;;;;;;;5.63;4.78;;;2.90;99.90;;;;;;5055399;28;20041;-51
2022/09/22 00:10:35;;;;;;;5.05;3.90;;;2.90;99.90;;;;;;5073750;28;20448;-52
2022/09/22 00:13:02;;;;;;;4.25;3.78;;;2.90;99.90;;;;;;5073840;28;20044;-56
2022/09/22 00:15:27;;;;;;;3.90;3.50;;;2.90;99.90;;;;;;5061918;28;20031;-54
2022/09/22 00:17:53;;;;;;;16.17;9.60;;;2.90;99.90;;;;;;5056006;28;20476;-53
2022/09/22 00:20:19;;;;;;;9.88;6.82;;;2.90;99.90;;;;;;5073598;28;20013;-53
2022/09/22 00:22:49;;;;;;;6.97;5.50;;;2.90;99.90;;;;;;5072059;28;20434;-52
2022/09/22 00:25:16;;;;;;;10.10;7.38;;;2.80;99.90;;;;;;5061132;28;20020;-51
2022/09/22 00:27:42;;;;;;;8.05;6.63;;;2.80;99.90;;;;;;5053666;28;20025;-51
2022/09/22 00:30:08;;;;;;;8.32;5.85;;;2.70;99.90;;;;;;5053828;28;20080;-55
2022/09/22 00:32:38;;;;;;;14.85;7.15;;;2.70;99.90;;;;;;5053576;28;20514;-54
2022/09/22 00:35:04;;;;;;;7.95;5.70;;;2.70;99.90;;;;;;5064260;28;20025;-52
2022/09/22 00:37:30;;;;;;;7.30;6.38;;;2.70;99.90;;;;;;5057866;28;20049;-52
2022/09/22 00:39:56;;;;;;;5.78;5.13;;;2.70;99.90;;;;;;5053551;28;20052;-52
2022/09/22 00:42:22;;;;;;;7.43;5.53;;;2.70;99.90;;;;;;5053691;28;20053;-51
2022/09/22 00:44:47;;;;;;;10.45;5.88;;;2.60;99.90;;;;;;5062706;28;20571;-51
2022/09/22 00:47:44;;;;;;;5.82;5.30;;;2.60;99.90;;;;;;5071872;28;20029;-54
2022/09/22 00:50:27;;;;;;;5.38;4.40;;;2.70;99.90;;;;;;5055049;28;20590;-53
2022/09/22 00:52:57;;;;;;;4.60;4.18;;;2.70;99.90;;;;;;5055922;28;20039;-53
2022/09/22 00:55:36;;;;;;;10.75;4.60;;;2.60;99.90;;;;;;5058406;28;20115;-51
2022/09/22 00:58:07;;;;;;;5.43;4.07;;;2.60;99.90;;;;;;5056653;28;20021;-52
2022/09/22 01:00:33;;;;;;;4.40;4.07;;;2.60;99.90;;;;;;5072991;28;20028;-50
2022/09/22 01:03:01;;;;;;;6.65;4.28;;;2.60;99.90;;;;;;5053022;28;20593;-51
2022/09/22 01:05:29;;;;;;;5.13;4.22;;;2.70;99.90;;;;;;5067308;28;20020;-51
2022/09/22 01:07:54;;;;;;;9.30;5.15;;;2.60;99.90;;;;;;5072489;28;20044;-52
2022/09/22 01:10:21;;;;;;;6.03;4.53;;;2.60;99.90;;;;;;5071680;28;20047;-51
2022/09/22 01:13:11;;;;;;;5.03;4.53;;;2.60;99.90;;;;;;5072683;28;20048;-53
2022/09/22 01:15:53;;;;;;;5.40;4.07;;;2.50;99.90;;;;;;5057406;28;20049;-52
2022/09/22 01:19:07;;;;;;;4.55;4.18;;;2.50;99.90;;;;;;5070472;28;20024;-53
2022/09/22 01:21:41;;;;;;;6.68;5.80;;;2.50;99.90;;;;;;5058677;28;20112;-52
2022/09/22 01:24:24;;;;;;;5.07;4.68;;;2.50;99.90;;;;;;5058094;28;20119;-53
2022/09/22 01:26:56;;;;;;;4.47;4.05;;;2.50;99.90;;;;;;5070645;28;20025;-52
2022/09/22 01:29:49;;;;;;;4.57;4.05;;;2.50;99.90;;;;;;5061499;28;20056;-53
2022/09/22 01:32:23;;;;;;;7.72;4.90;;;2.50;99.90;;;;;;5052605;28;20029;-55
2022/09/22 01:35:04;;;;;;;;;;;2.40;99.90;;;;;;5060971;28;20359;-51
2022/09/22 01:37:29;;;;;;;5.85;4.07;;;2.40;99.90;;;;;;5072388;28;19915;-55
2022/09/22 01:40:04;;;;;;;5.07;4.30;;;2.40;99.90;;;;;;5072326;28;20292;-51
2022/09/22 01:43:05;;;;;;;5.20;3.85;;;2.40;99.90;;;;;;5072116;28;20468;-52
2022/09/22 01:45:34;;;;;;;4.13;3.83;;;2.40;99.90;;;;;;5062453;28;20159;-50
2022/09/22 01:48:19;;;;;;;6.10;3.78;;;2.30;99.90;;;;;;5053425;28;20035;-51
2022/09/22 01:51:07;;;;;;;4.32;3.88;;;2.30;99.90;;;;;;5052052;28;20028;-51
2022/09/22 01:53:39;;;;;;;5.75;4.10;;;2.30;99.90;;;;;;5052143;28;20025;-53
2022/09/22 01:56:09;;;;;;;6.05;4.70;;;2.30;99.90;;;;;;5069651;28;20028;-51
2022/09/22 01:58:45;;;;;;;4.00;3.70;;;2.30;99.90;;;;;;5071282;28;20020;-53
2022/09/22 02:01:15;;;;;;;3.95;3.55;;;2.30;99.90;;;;;;5071785;28;20024;-52
2022/09/22 02:04:03;;;;;;;4.00;3.60;;;2.30;99.90;;;;;;5071641;28;20033;-51
2022/09/22 02:06:38;;;;;;;5.20;3.80;;;2.30;99.90;;;;;;5051755;28;20108;-53
2022/09/22 02:09:05;;;;;;;9.57;4.15;;;2.30;99.90;;;;;;5051967;28;20040;-50
2022/09/22 02:11:31;;;;;;;7.80;3.85;;;2.30;99.90;;;;;;5051868;28;20423;-51
2022/09/22 02:13:57;;;;;;;4.20;3.88;;;2.30;99.90;;;;;;5051929;28;20492;-52
2022/09/22 02:16:26;;;;;;;4.15;3.75;;;2.20;99.90;;;;;;5068042;28;20091;-52
2022/09/22 02:19:01;;;;;;;9.55;5.32;;;2.20;99.90;;;;;;5051763;28;20040;-51
2022/09/22 02:21:28;;;;;;;4.53;4.07;;;2.20;99.90;;;;;;5060996;28;20048;-51
2022/09/22 02:23:54;;;;;;;7.95;4.55;;;2.20;99.90;;;;;;5056838;28;20040;-51
2022/09/22 02:26:24;;;;;;;3.78;3.47;;;2.20;99.90;;;;;;5051650;28;20029;-51
2022/09/22 02:28:54;;;;;;;5.55;4.35;;;2.10;99.90;;;;;;5061573;28;20034;-53
2022/09/22 02:31:23;;;;;;;4.00;3.70;;;2.10;99.90;;;;;;5063012;28;20547;-54
2022/09/22 02:33:50;;;;;;;5.90;4.13;;;2.10;99.90;;;;;;5050091;28;20029;-51
2022/09/22 02:36:28;;;;;;;4.68;3.90;;;2.10;99.90;;;;;;5051473;28;20520;-54
2022/09/22 02:39:17;;;;;;;7.18;4.90;;;2.10;99.90;;;;;;5050117;28;20698;-51
2022/09/22 02:42:00;;;;;;;3.90;3.60;;;2.10;99.90;;;;;;5061402;28;20460;-52
2022/09/22 02:44:42;;;;;;;5.03;4.45;;;2.10;99.90;;;;;;5071383;28;20384;-54
2022/09/22 02:47:52;;;;;;;4.57;4.18;;;2.10;99.90;;;;;;5059802;28;20571;-52
2022/09/22 02:50:21;;;;;;;4.22;3.85;;;2.00;99.90;;;;;;5060400;28;20076;-51
2022/09/22 02:52:51;;;;;;;4.20;3.78;;;2.00;99.90;;;;;;5070511;28;20016;-51
2022/09/22 02:55:17;;;;;;;4.70;3.97;;;2.00;99.90;;;;;;5071090;28;20021;-51
2022/09/22 02:57:43;;;;;;;8.52;4.05;;;2.10;99.90;;;;;;5071003;28;20070;-50
2022/09/22 03:00:09;;;;;;;7.95;4.15;;;2.10;99.90;;;;;;5062398;28;20052;-50
2022/09/22 03:02:35;;;;;;;4.20;3.90;;;2.10;99.90;;;;;;5052645;28;20060;-53
2022/09/22 03:05:02;;;;;;;4.35;3.95;;;2.10;99.90;;;;;;5049896;28;20424;-53
2022/09/22 03:07:28;;;;;;;4.30;3.88;;;2.10;99.90;;;;;;5051128;28;20045;-51
2022/09/22 03:09:53;;;;;;;4.78;4.35;;;2.10;99.90;;;;;;5051178;28;20538;-52
2022/09/22 03:12:20;;;;;;;9.20;4.38;;;2.10;99.90;;;;;;5066623;28;20028;-52
2022/09/22 03:14:45;;;;;;;7.60;4.22;;;2.10;99.90;;;;;;5070476;28;20024;-51
2022/09/22 03:17:11;;;;;;;9.30;3.92;;;2.20;99.90;;;;;;5060498;28;20025;-52
2022/09/22 03:19:36;;;;;;;5.35;4.38;;;2.20;99.90;;;;;;5050812;28;20033;-52
2022/09/22 03:22:02;;;;;;;4.28;3.95;;;2.20;99.90;;;;;;5065148;28;20082;-53
2022/09/22 03:24:28;;;;;;;7.70;4.65;;;2.20;99.90;;;;;;5070648;28;20059;-52
2022/09/22 03:26:54;;;;;;;9.18;4.90;;;2.20;99.90;;;;;;5070691;28;20045;-52
2022/09/22 03:29:19;;;;;;;8.32;4.68;;;2.20;99.90;;;;;;5063109;28;20029;-53
2022/09/22 03:31:45;;;;;;;13.07;6.88;;;2.20;99.90;;;;;;5060841;28;20487;-52
2022/09/22 03:34:11;;;;;;;5.05;4.22;;;2.20;99.90;;;;;;5071129;28;20635;-53
2022/09/22 03:36:36;;;;;;;6.78;4.30;;;2.20;99.90;;;;;;5070474;28;20039;-50
2022/09/22 03:39:02;;;;;;;5.65;4.13;;;2.20;99.90;;;;;;5066380;28;20704;-55
2022/09/22 03:41:28;;;;;;;8.10;4.82;;;2.20;99.90;;;;;;5051056;28;20116;-53
2022/09/22 03:43:54;;;;;;;5.78;5.10;;;2.20;99.90;;;;;;5050671;28;20025;-51
2022/09/22 03:46:19;;;;;;;5.78;4.28;;;2.30;99.90;;;;;;5052036;28;20158;-52
2022/09/22 03:48:45;;;;;;;4.03;3.72;;;2.30;99.90;;;;;;5052184;28;20052;-51
2022/09/22 03:51:11;;;;;;;4.80;4.07;;;2.30;99.90;;;;;;5070138;28;20024;-51
2022/09/22 03:53:36;;;;;;;5.80;4.25;;;2.30;99.90;;;;;;5073207;28;20116;-51
2022/09/22 03:56:11;;;;;;;5.05;4.55;;;2.30;99.90;;;;;;5072791;28;20054;-53
2022/09/22 03:58:37;;;;;;;5.78;4.60;;;2.30;99.90;;;;;;5073429;28;20424;-50
2022/09/22 04:01:04;;;;;;;7.60;4.13;;;2.30;99.90;;;;;;5054384;28;20036;-54
2022/09/22 04:03:30;;;;;;;7.15;4.53;;;2.30;99.90;;;;;;5060186;28;20028;-51
2022/09/22 04:05:56;;;;;;;18.08;8.18;;;2.30;99.90;;;;;;5073497;28;20056;-51
2022/09/22 04:08:22;;;;;;;45.13;16.35;;;2.40;99.90;;;;;;5074110;28;20079;-51
2022/09/22 04:10:48;;;;;;;20.13;9.93;;;2.50;99.90;;;;;;5065626;28;20079;-54
2022/09/22 04:13:14;;;;;;;19.45;9.45;;;2.60;99.90;;;;;;5053978;28;20067;-50
2022/09/22 04:15:40;;;;;;;19.75;9.05;;;2.50;99.90;;;;;;5054888;28;20040;-52
2022/09/22 04:18:06;;;;;;;16.67;9.13;;;2.50;99.90;;;;;;5070953;28;20029;-52
2022/09/22 04:20:31;;;;;;;18.70;10.52;;;2.50;99.90;;;;;;5058371;28;20025;-52
2022/09/22 04:22:57;;;;;;;19.10;9.13;;;2.60;99.90;;;;;;5058182;28;20027;-53
2022/09/22 04:25:23;;;;;;;17.65;8.98;;;2.60;99.90;;;;;;5073623;28;20162;-54
2022/09/22 04:27:48;;;;;;;14.27;8.35;;;2.50;99.90;;;;;;5073505;28;20063;-54
2022/09/22 04:30:14;;;;;;;17.15;7.53;;;2.50;99.90;;;;;;5060379;28;20082;-53
2022/09/22 04:32:40;;;;;;;16.95;7.25;;;2.40;99.90;;;;;;5070139;28;20035;-52
2022/09/22 04:35:07;;;;;;;8.75;6.55;;;2.40;99.90;;;;;;5056338;28;20461;-52
2022/09/22 04:37:32;;;;;;;11.70;6.97;;;2.50;99.90;;;;;;5052358;28;20127;-51
2022/09/22 04:39:58;;;;;;;14.93;7.55;;;2.40;99.90;;;;;;5064044;28;20111;-52
2022/09/22 04:42:25;;;;;;;14.55;7.22;;;2.40;99.90;;;;;;5071997;28;20450;-52
2022/09/22 04:44:51;;;;;;;16.08;6.55;;;2.40;99.90;;;;;;5071883;28;20422;-55
2022/09/22 04:47:16;;;;;;;9.38;5.68;;;2.40;99.90;;;;;;5071902;28;20035;-53
2022/09/22 04:49:42;;;;;;;8.73;6.30;;;2.40;99.90;;;;;;5064318;28;20467;-50
2022/09/22 04:52:08;;;;;;;6.97;5.63;;;2.50;99.90;;;;;;5054512;28;20032;-54
2022/09/22 04:54:34;;;;;;;7.43;4.95;;;2.40;99.90;;;;;;5053131;28;20025;-54
2022/09/22 04:57:00;;;;;;;11.00;5.88;;;2.40;99.90;;;;;;5053234;28;20094;-54
2022/09/22 04:59:25;;;;;;;11.20;6.25;;;2.40;99.90;;;;;;5063743;28;20041;-53
2022/09/22 05:01:51;;;;;;;9.38;7.28;;;2.40;99.90;;;;;;5052799;28;20438;-51
2022/09/22 05:04:17;;;;;;;8.27;6.13;;;2.50;99.90;;;;;;5051130;28;20021;-52
2022/09/22 05:06:43;;;;;;;10.00;6.47;;;2.50;99.90;;;;;;5070137;28;20037;-52
2022/09/22 05:09:08;;;;;;;7.90;5.65;;;2.50;99.90;;;;;;5067166;28;20052;-52
2022/09/22 05:11:34;;;;;;;19.17;8.07;;;2.60;99.90;;;;;;5051905;28;20446;-52
2022/09/22 05:14:01;;;;;;;8.52;6.30;;;2.70;99.90;;;;;;5051651;28;20066;-54
2022/09/22 05:16:27;;;;;;;6.47;5.47;;;2.70;99.90;;;;;;5055066;28;20021;-54
2022/09/22 05:18:53;;;;;;;21.00;5.45;;;2.80;99.90;;;;;;5071157;28;20040;-53
2022/09/22 05:21:18;;;;;;;9.80;7.05;;;2.90;99.90;;;;;;5052698;28;20059;-52
2022/09/22 05:23:44;;;;;;;8.85;6.00;;;2.90;99.90;;;;;;5052415;28;20059;-54
2022/09/22 05:26:10;;;;;;;7.63;5.47;;;2.90;99.90;;;;;;5056960;28;20028;-51
2022/09/22 05:28:36;;;;;;;11.18;6.38;;;2.90;99.90;;;;;;5071918;28;20055;-53
2022/09/22 05:31:03;;;;;;;13.23;6.20;;;3.00;99.90;;;;;;5053512;28;20103;-52
2022/09/22 05:33:29;;;;;;;17.30;7.05;;;3.00;99.90;;;;;;5052313;28;20453;-52
2022/09/22 05:35:55;;;;;;;7.40;5.85;;;3.20;99.90;;;;;;5061104;28;20107;-50
2022/09/22 05:38:20;;;;;;;8.57;5.53;;;3.20;99.90;;;;;;5071872;28;20416;-51
2022/09/22 05:40:46;;;;;;;7.30;5.78;;;3.30;99.90;;;;;;5055745;28;20071;-52
2022/09/22 05:43:12;;;;;;;7.63;6.15;;;3.40;99.90;;;;;;5052590;28;20017;-52
2022/09/22 05:45:38;;;;;;;6.05;5.47;;;3.50;99.90;;;;;;5053332;28;20028;-52
2022/09/22 05:48:04;;;;;;;6.57;5.70;;;3.60;99.90;;;;;;5052102;28;20487;-52
2022/09/22 05:50:30;;;;;;;13.55;8.02;;;3.60;99.90;;;;;;5065716;28;20064;-53
2022/09/22 05:53:08;;;;;;;10.00;7.25;;;3.80;99.90;;;;;;5071658;28;20024;-50
2022/09/22 05:55:35;;;;;;;11.48;8.40;;;3.90;99.90;;;;;;5071970;28;20116;-50
2022/09/22 05:58:01;;;;;;;13.10;7.00;;;4.00;99.90;;;;;;5052205;28;20031;-53
2022/09/22 06:00:27;;;;;;;19.48;10.32;;;4.10;99.90;;;;;;5064901;28;20434;-51
2022/09/22 06:02:53;;;;;;;10.52;7.22;;;4.20;99.90;;;;;;5071631;28;20037;-50
2022/09/22 06:05:19;;;;;;;11.25;7.97;;;4.20;99.90;;;;;;5069720;28;20031;-51
2022/09/22 06:07:45;;;;;;;8.80;7.40;;;4.40;99.90;;;;;;5051721;28;20045;-50
2022/09/22 06:10:11;;;;;;;8.90;7.97;;;4.50;99.90;;;;;;5062480;28;20028;-51
2022/09/22 06:12:38;;;;;;;13.82;7.50;;;4.50;99.90;;;;;;5071319;28;20036;-53
2022/09/22 06:15:05;;;;;;;18.45;6.22;;;4.60;99.90;;;;;;5071540;28;20537;-51
2022/09/22 06:17:30;;;;;;;8.73;5.40;;;4.60;99.90;;;;;;5059231;28;20113;-51
2022/09/22 06:19:58;;;;;;;8.48;5.65;;;4.60;99.90;;;;;;5059862;28;20431;-54
2022/09/22 06:22:24;;;;;;;9.68;6.53;;;4.70;99.90;;;;;;5056536;28;20033;-52
2022/09/22 06:24:50;;;;;;;11.07;7.22;;;4.90;99.90;;;;;;5051455;28;20025;-50
2022/09/22 06:27:16;;;;;;;6.65;5.90;;;4.90;99.90;;;;;;5051641;28;20404;-54
2022/09/22 06:29:41;;;;;;;11.07;7.03;;;5.00;99.90;;;;;;5057600;28;20029;-51
2022/09/22 06:32:08;;;;;;;10.60;6.97;;;5.10;99.90;;;;;;5058561;28;20437;-50
2022/09/22 06:34:37;;;;;;;13.55;7.50;;;5.20;99.90;;;;;;5071477;28;20021;-51
2022/09/22 06:37:06;;;;;;;13.93;6.40;;;5.30;99.90;;;;;;5061615;28;20158;-50
2022/09/22 06:39:32;;;;;;;8.95;5.65;;;5.40;99.90;;;;;;5050400;28;20024;-51
2022/09/22 06:41:58;;;;;;;14.52;6.72;;;5.50;99.90;;;;;;5051433;28;20021;-52
2022/09/22 06:44:24;;;;;;;7.32;5.57;;;5.70;99.90;;;;;;5051542;28;20029;-52
2022/09/22 06:46:50;;;;;;;6.35;5.70;;;5.80;99.90;;;;;;5051230;28;20163;-51
2022/09/22 06:49:16;;;;;;;8.85;6.15;;;5.90;99.90;;;;;;5061609;28;20104;-53
2022/09/22 06:51:41;;;;;;;6.28;5.68;;;6.10;99.90;;;;;;5071143;28;20151;-52
2022/09/22 06:54:07;;;;;;;9.15;5.68;;;6.30;99.90;;;;;;5071264;28;20470;-55
2022/09/22 06:56:36;;;;;;;7.40;5.40;;;6.40;99.90;;;;;;5071268;28;20044;-51
2022/09/22 06:59:04;;;;;;;7.72;6.35;;;6.60;99.90;;;;;;5071455;28;20054;-50
2022/09/22 07:01:30;;;;;;;6.00;5.18;;;6.80;99.90;;;;;;5063791;28;20036;-50
2022/09/22 07:03:56;;;;;;;5.55;5.03;;;7.00;99.90;;;;;;5051113;28;20124;-51
2022/09/22 07:06:21;;;;;;;4.35;3.95;;;7.10;99.90;;;;;;5062976;28;20060;-50
2022/09/22 07:08:48;;;;;;;2.83;2.63;;;7.30;99.90;;;;;;5070686;28;20510;-54
2022/09/22 07:11:22;;;;;;;3.65;3.35;;;7.60;99.90;;;;;;5051686;28;20033;-52
2022/09/22 07:13:52;;;;;;;6.22;4.30;;;7.70;99.90;;;;;;5051024;28;20107;-50
2022/09/22 07:16:21;;;;;;;3.88;3.35;;;7.80;99.90;;;;;;5054669;28;20375;-51
2022/09/22 07:18:51;;;;;;;3.03;2.83;;;7.90;99.90;;;;;;5064752;28;20033;-51
2022/09/22 07:21:22;;;;;;;3.13;2.83;;;7.90;99.90;;;;;;5070560;28;20116;-50
2022/09/22 07:23:50;;;;;;;5.72;3.97;;;8.00;99.90;;;;;;5071024;28;20063;-50
2022/09/22 07:26:18;;;;;;;3.55;3.25;;;8.10;99.90;;;;;;5070566;28;20028;-51
2022/09/22 07:28:45;;;;;;;3.92;3.53;;;8.30;99.90;;;;;;5059081;28;20029;-52
2022/09/22 07:31:13;;;;;;;4.50;3.80;;;8.50;99.90;;;;;;5052998;28;20021;-52
2022/09/22 07:33:41;;;;;;;4.47;3.53;;;8.70;99.90;;;;;;5053456;28;20071;-50
2022/09/22 07:36:20;;;;;;;5.55;3.90;;;9.00;99.90;;;;;;5053339;28;20121;-51
2022/09/22 07:38:48;;;;;;;3.97;2.95;;;9.20;99.90;;;;;;5069655;28;20115;-50
2022/09/22 07:41:18;;;;;;;5.43;2.60;;;9.40;99.90;;;;;;5073191;28;20028;-52
2022/09/22 07:43:45;;;;;;;5.10;3.22;;;9.60;99.90;;;;;;5059754;28;20423;-51
2022/09/22 07:46:13;;;;;;;3.97;3.03;;;9.80;99.90;;;;;;5054579;28;20055;-52
2022/09/22 07:48:46;;;;;;;3.38;3.08;;;9.80;99.90;;;;;;5053204;28;20100;-51
2022/09/22 07:51:24;;;;;;;3.47;3.15;;;10.00;99.90;;;;;;5071034;28;20392;-53
2022/09/22 07:54:06;;;;;;;3.20;2.90;;;10.10;99.90;;;;;;5073095;28;20044;-54
2022/09/22 07:56:39;;;;;;;7.55;4.20;;;10.20;99.90;;;;;;5062233;28;20044;-51
2022/09/22 07:59:09;;;;;;;;;;;10.30;99.90;;;;;;5053602;28;20024;-51
2022/09/22 08:01:42;;;;;;;5.32;3.15;;;10.40;99.90;;;;;;5052966;28;19908;-53
2022/09/22 08:04:11;;;;;;;;;;;10.40;99.90;;;;;;5059756;28;20017;-50
2022/09/22 08:06:37;;;;;;;13.65;5.07;;;10.30;99.90;;;;;;5071931;28;19939;-53
2022/09/22 08:09:05;;;;;;;4.32;3.60;;;10.20;99.90;;;;;;5053358;28;20029;-50
2022/09/22 08:11:31;;;;;;;4.43;3.42;;;10.20;99.90;;;;;;5053347;28;20080;-51
2022/09/22 08:14:03;;;;;;;4.97;3.30;;;10.50;99.90;;;;;;5053421;28;20057;-51
2022/09/22 08:16:31;;;;;;;4.18;2.95;;;10.80;99.90;;;;;;5060663;28;20055;-51
2022/09/22 08:18:59;;;;;;;6.35;3.42;;;10.80;99.90;;;;;;5063228;28;20025;-55
2022/09/22 08:21:34;;;;;;;3.20;2.92;;;10.80;99.90;;;;;;5054939;28;20019;-53
2022/09/22 08:24:03;;;;;;;3.15;2.85;;;10.90;99.90;;;;;;5045271;28;20037;-51
2022/09/22 08:26:29;;;;;;;2.97;2.65;;;11.10;99.90;;;;;;5043436;28;20413;-52
2022/09/22 08:28:56;;;;;;;3.80;3.40;;;11.20;99.90;;;;;;5046564;28;20040;-54
2022/09/22 08:31:24;;;;;;;4.28;2.97;;;11.30;99.90;;;;;;5044510;28;20033;-53
2022/09/22 08:33:51;;;;;;;7.47;4.07;;;11.50;99.90;;;;;;5043258;28;20094;-52
2022/09/22 08:36:17;;;;;;;6.00;3.22;;;11.40;99.90;;;;;;5043118;28;20155;-54
2022/09/22 08:38:46;;;;;;;3.80;3.40;;;11.50;99.90;;;;;;5042901;28;20033;-52
2022/09/22 08:41:41;;;;;;;3.63;2.67;;;11.70;99.90;;;;;;5041839;28;20488;-55
2022/09/22 08:44:08;;;;;;;5.13;3.08;;;12.00;99.90;;;;;;5042692;28;20175;-54
2022/09/22 08:46:38;;;;;;;5.75;3.17;;;12.40;99.90;;;;;;5043255;28;20033;-52
2022/09/22 08:52:01;;;;;;;5.20;3.40;;;12.50;99.90;;;;;;5045263;28;20087;-51
2022/09/22 08:54:33;;;;;;;4.10;3.50;;;12.60;99.90;;;;;;5043677;28;20035;-55
2022/09/22 08:57:18;;;;;;;4.10;2.92;;;12.90;99.90;;;;;;5040950;28;20024;-52
2022/09/22 09:00:05;;;;;;;5.00;3.88;;;12.90;99.90;;;;;;5043038;28;20408;-53
2022/09/22 09:02:57;;;;;;;3.60;3.30;;;13.00;99.90;;;;;;5041703;28;20037;-53
2022/09/22 09:06:03;;;;;;;3.97;3.15;;;13.20;99.90;;;;;;5042876;28;20384;-51
2022/09/22 09:08:44;;;;;;;8.20;3.58;;;12.90;99.90;;;;;;5042177;28;20064;-53
2022/09/22 09:11:15;;;;;;;4.78;4.10;;;12.80;99.90;;;;;;5039835;28;20052;-51
2022/09/22 09:14:39;;;;;;;4.15;3.75;;;13.00;99.90;;;;;;5040523;28;20524;-52
2022/09/22 09:17:14;;;;;;;7.35;3.72;;;13.00;99.90;;;;;;5053659;28;20131;-54
2022/09/22 09:20:20;;;;;;;12.85;5.10;;;13.00;99.90;;;;;;5052722;28;20021;-52
2022/09/22 09:22:54;;;;;;;6.07;3.75;;;12.70;99.90;;;;;;5051988;28;20029;-54
2022/09/22 09:25:36;;;;;;;5.72;4.53;;;12.70;99.90;;;;;;5052649;28;20095;-54
2022/09/22 09:28:26;;;;;;;4.90;4.40;;;12.80;99.90;;;;;;5066666;28;20031;-51
2022/09/22 09:31:14;;;;;;;4.55;4.10;;;12.50;99.90;;;;;;5052137;28;20377;-52
2022/09/22 09:33:57;;;;;;;4.50;4.10;;;13.00;99.90;;;;;;5070388;28;20025;-52
2022/09/22 09:36:30;;;;;;;5.97;4.53;;;13.60;99.90;;;;;;5070204;28;20020;-53
2022/09/22 09:38:57;;;;;;;4.70;3.58;;;13.70;99.90;;;;;;5070442;28;20425;-51
2022/09/22 09:41:35;;;;;;;5.45;3.83;;;13.60;99.90;;;;;;5070838;28;20020;-53
2022/09/22 09:44:02;;;;;;;8.75;4.97;;;14.10;99.90;;;;;;5071493;28;20016;-54
2022/09/22 09:47:04;;;;;;;6.28;3.80;;;14.20;99.90;;;;;;5071070;28;20116;-52
2022/09/22 09:49:30;;;;;;;4.32;3.25;;;14.30;99.90;;;;;;5069434;28;20024;-52
2022/09/22 09:51:59;;;;;;;7.18;3.40;;;14.60;99.90;;;;;;5070048;28;20103;-54
2022/09/22 09:54:26;;;;;;;4.03;3.10;;;14.60;98.90;;;;;;5070191;28;20456;-53
2022/09/22 09:57:15;;;;;;;5.55;3.20;;;14.60;99.90;;;;;;5070270;28;20104;-55
2022/09/22 10:02:49;;;;;;;4.93;3.30;;;14.60;99.50;;;;;;5070907;28;20498;-50
2022/09/22 10:05:14;;;;;;;4.07;3.30;;;14.90;99.00;;;;;;5071102;28;20419;-51
2022/09/22 10:07:43;;;;;;;9.70;4.10;;;15.10;99.20;;;;;;5071673;28;20044;-52
2022/09/22 10:10:28;;;;;;;4.47;3.80;;;15.00;99.00;;;;;;5071986;28;20032;-51
2022/09/22 10:13:03;;;;;;;4.68;3.33;;;15.20;99.30;;;;;;5051403;28;20025;-51
2022/09/22 10:15:31;;;;;;;4.32;3.65;;;15.20;98.20;;;;;;5051474;28;20025;-52
2022/09/22 10:17:57;;;;;;;7.50;3.55;;;15.10;98.60;;;;;;5051331;28;20033;-51
2022/09/22 10:20:25;;;;;;;5.95;4.57;;;15.30;98.30;;;;;;5052761;28;20086;-52
2022/09/22 10:22:55;;;;;;;5.65;3.83;;;15.40;98.90;;;;;;5041647;28;20051;-55
2022/09/22 10:25:22;;;;;;;3.58;3.03;;;15.70;97.90;;;;;;5039989;28;20056;-51
2022/09/22 10:27:59;;;;;;;3.92;3.33;;;15.60;97.40;;;;;;5040903;28;20033;-52
2022/09/22 10:30:26;;;;;;;3.55;3.25;;;15.90;97.40;;;;;;5040389;28;20404;-53
2022/09/22 10:33:18;;;;;;;5.50;3.65;;;16.20;98.00;;;;;;5039838;28;20037;-51
2022/09/22 10:35:52;;;;;;;5.30;3.20;;;16.20;97.20;;;;;;5039726;28;20029;-55
2022/09/22 10:38:21;;;;;;;3.85;3.00;;;16.30;95.50;;;;;;5041264;28;20037;-55
2022/09/22 10:41:20;;;;;;;8.27;3.45;;;16.60;94.70;;;;;;5041491;28;20107;-51
2022/09/22 10:43:49;;;;;;;6.80;3.90;;;16.80;95.00;;;;;;5043063;28;20044;-53
2022/09/22 10:46:36;;;;;;;3.58;3.03;;;17.30;93.60;;;;;;5040764;28;20052;-51
2022/09/22 10:49:10;;;;;;;4.18;3.33;;;18.20;92.90;;;;;;5040691;28;20056;-56
2022/09/22 10:51:46;;;;;;;8.10;3.03;;;19.10;90.60;;;;;;5040135;28;20033;-53
2022/09/22 10:54:41;;;;;;;3.55;3.25;;;20.30;87.10;;;;;;5039151;28;20502;-56
2022/09/22 10:57:28;;;;;;;3.53;2.75;;;21.30;82.40;;;;;;5040291;28;20447;-52
2022/09/22 11:00:13;;;;;;;4.00;2.47;;;22.30;76.70;;;;;;5040182;28;20112;-56
2022/09/22 11:03:05;;;;;;;3.55;2.22;;;22.80;72.50;;;;;;5040831;28;20090;-56
2022/09/22 11:12:16;;;;;;;10.27;1.90;;;24.50;62.10;;;;;;5043274;28;20541;-52
2022/09/22 11:15:12;;;;;;;2.20;2.00;;;24.00;59.80;;;;;;5044251;28;20471;-55
2022/09/22 11:18:11;;;;;;;4.45;1.63;;;24.60;58.90;;;;;;5043605;28;20384;-52
2022/09/22 11:20:43;;;;;;;7.82;1.65;;;24.30;57.50;;;;;;5043648;28;20085;-56
2022/09/22 11:23:55;;;;;;;2.90;1.92;;;24.60;58.00;;;;;;5044370;28;20162;-55
2022/09/22 11:26:35;;;;;;;3.00;1.60;;;24.40;56.50;;;;;;5047313;28;20044;-54
2022/09/22 11:29:22;;;;;;;4.95;1.70;;;24.30;56.60;;;;;;5044593;28;20034;-55
2022/09/22 11:31:54;;;;;;;2.00;1.40;;;22.30;56.10;;;;;;5063494;28;20021;-52
2022/09/22 11:34:30;;;;;;;2.65;2.10;;;22.80;58.00;;;;;;5064247;28;20372;-54
2022/09/22 11:37:25;;;;;;;1.90;1.42;;;22.70;57.00;;;;;;5063197;28;20020;-55
2022/09/22 11:40:03;;;;;;;9.15;1.85;;;23.20;54.70;;;;;;5048632;28;20142;-56
2022/09/22 11:42:34;;;;;;;4.90;1.98;;;23.60;55.10;;;;;;5062849;28;20127;-53
2022/09/22 11:45:26;;;;;;;1.60;1.10;;;24.10;55.00;;;;;;5045099;28;20524;-55
2022/09/22 11:48:10;;;;;;;4.15;1.40;;;24.30;52.40;;;;;;5043112;28;20135;-55
2022/09/22 11:51:11;;;;;;;1.40;1.30;;;25.10;50.90;;;;;;5062503;28;20049;-55
2022/09/22 11:54:04;;;;;;;1.60;1.33;;;25.10;51.80;;;;;;5068171;28;20171;-54
2022/09/22 11:56:33;;;;;;;;;;;25.00;51.00;;;;;;5056167;28;20032;-55
2022/09/22 11:59:09;;;;;;;2.80;1.70;;;25.60;50.50;;;;;;5054319;28;19991;-54
2022/09/22 12:01:37;;;;;;;5.50;2.00;;;25.40;50.60;;;;;;5054462;28;20036;-54
2022/09/22 12:04:20;;;;;;;1.90;1.60;;;25.60;49.60;;;;;;5053983;28;20021;-55
2022/09/22 12:06:50;;;;;;;1.95;1.35;;;25.30;49.50;;;;;;5053961;28;20025;-56
2022/09/22 12:09:48;;;;;;;3.08;2.17;;;24.70;50.70;;;;;;5052930;28;20036;-53
2022/09/22 12:12:18;;;;;;;3.15;1.58;;;24.40;50.10;;;;;;5063980;28;20040;-52
2022/09/22 12:14:49;;;;;;;1.70;1.60;;;24.90;50.70;;;;;;5073422;28;20090;-54
2022/09/22 12:17:22;;;;;;;2.22;1.83;;;24.90;49.10;;;;;;5074059;28;20021;-53
2022/09/22 12:20:08;;;;;;;1.27;1.17;;;24.90;49.30;;;;;;5072774;28;20020;-53
2022/09/22 12:22:56;;;;;;;4.80;1.35;;;24.90;47.90;;;;;;5085423;28;20024;-55
2022/09/22 12:25:42;;;;;;;4.47;1.45;;;25.30;47.00;;;;;;5087944;28;20115;-56
2022/09/22 12:28:14;;;;;;;1.25;0.88;;;25.10;47.60;;;;;;5087430;28;20017;-54
2022/09/22 12:31:13;;;;;;;5.35;1.27;;;26.20;47.90;;;;;;5071545;28;20028;-53
2022/09/22 12:33:45;;;;;;;1.55;0.95;;;26.40;46.10;;;;;;5073377;28;20377;-56
2022/09/22 12:36:11;;;;;;;0.63;0.63;;;25.80;44.50;;;;;;5073376;28;20013;-56
2022/09/22 12:38:37;;;;;;;6.15;1.20;;;26.40;44.40;;;;;;5073514;28;20023;-53
2022/09/22 12:41:04;;;;;;;2.03;1.20;;;27.00;42.40;;;;;;5063747;28;20031;-53
2022/09/22 12:43:32;;;;;;;2.58;1.00;;;26.60;42.10;;;;;;5053631;28;20133;-50
2022/09/22 12:46:04;;;;;;;1.30;1.20;;;27.70;44.80;;;;;;5051705;28;20037;-54
2022/09/22 12:48:36;;;;;;;1.13;1.07;;;26.70;43.90;;;;;;5054304;28;20651;-53
2022/09/22 12:51:34;;;;;;;1.20;1.10;;;26.90;43.30;;;;;;5053393;28;20293;-54
2022/09/22 12:54:21;;;;;;;1.80;1.65;;;26.40;45.80;;;;;;5062389;28;20037;-56
2022/09/22 12:57:00;;;;;;;1.85;1.65;;;26.00;44.50;;;;;;5064442;28;20024;-55
2022/09/22 12:59:34;;;;;;;3.72;1.45;;;26.50;45.80;;;;;;5073363;28;20337;-53
2022/09/22 13:02:16;;;;;;;1.58;1.30;;;27.20;45.70;;;;;;5071438;28;20570;-54
2022/09/22 13:05:03;;;;;;;2.40;1.02;;;27.40;45.30;;;;;;5068945;28;20085;-52
2022/09/22 13:07:42;;;;;;;1.05;0.98;;;27.20;42.40;;;;;;5051589;28;20060;-51
2022/09/22 13:10:26;;;;;;;0.98;0.85;;;26.60;42.30;;;;;;5052434;28;20017;-53
2022/09/22 13:13:08;;;;;;;1.98;0.85;;;26.40;43.70;;;;;;5051897;28;20404;-52
2022/09/22 13:15:48;;;;;;;0.80;0.80;;;26.90;42.60;;;;;;5051758;28;20100;-51
2022/09/22 13:18:39;;;;;;;2.65;0.93;;;27.10;42.20;;;;;;5051559;28;20472;-53
2022/09/22 13:21:13;;;;;;;2.85;1.33;;;26.90;40.20;;;;;;5051539;28;20017;-53
2022/09/22 13:23:54;;;;;;;2.72;1.20;;;26.70;41.30;;;;;;5050018;28;20107;-57
2022/09/22 13:26:29;;;;;;;2.55;1.58;;;27.00;41.20;;;;;;5049242;28;20159;-55
2022/09/22 13:29:13;;;;;;;2.20;1.23;;;27.10;42.30;;;;;;5059130;28;20116;-54
2022/09/22 13:31:55;;;;;;;1.00;0.98;;;26.90;41.60;;;;;;5049491;28;20021;-52
2022/09/22 13:34:24;;;;;;;1.25;0.85;;;26.50;40.40;;;;;;5049776;28;20025;-52